createdAt,value
2024-01-05T00:00:48.994Z,6.35
2024-01-05T00:03:16.762Z,5.47
2024-01-05T00:05:44.464Z,4.35
2024-01-05T00:08:12.300Z,6.07
2024-01-05T00:10:40.017Z,6.45
2024-01-05T00:13:08.323Z,6.50
2024-01-05T00:15:36.107Z,8.27
2024-01-05T00:18:04.067Z,3.35
2024-01-05T00:20:31.920Z,6.00
2024-01-05T00:22:59.625Z,2.53
2024-01-05T00:25:27.385Z,5.10
2024-01-05T00:27:55.265Z,4.93
2024-01-05T00:30:22.989Z,2.63
2024-01-05T00:32:50.818Z,5.10
2024-01-05T00:35:18.587Z,3.53
2024-01-05T00:37:46.260Z,3.47
2024-01-05T00:40:14.232Z,2.58
2024-01-05T00:42:41.920Z,3.83
2024-01-05T00:45:10.197Z,6.40
2024-01-05T00:47:38.073Z,3.08
2024-01-05T00:50:06.127Z,1.38
2024-01-05T00:52:33.855Z,2.10
2024-01-05T00:55:01.490Z,1.40
2024-01-05T00:57:30.772Z,1.63
2024-01-05T00:59:58.500Z,2.40
2024-01-05T01:02:26.540Z,2.05
2024-01-05T01:04:54.272Z,2.45
2024-01-05T01:07:21.939Z,6.50
2024-01-05T01:09:49.645Z,5.15
2024-01-05T01:12:17.766Z,3.90
2024-01-05T01:14:45.479Z,3.55
2024-01-05T01:17:13.133Z,2.97
2024-01-05T01:19:40.925Z,2.67
2024-01-05T01:22:08.634Z,2.78
2024-01-05T01:24:36.367Z,2.83
2024-01-05T01:27:04.240Z,2.13
2024-01-05T01:29:31.913Z,3.60
2024-01-05T01:31:59.615Z,2.78
2024-01-05T01:34:27.588Z,3.05
2024-01-05T01:36:55.487Z,1.88
2024-01-05T01:39:23.186Z,0.98
2024-01-05T01:41:51.149Z,1.88
2024-01-05T01:44:19.047Z,3.58
2024-01-05T01:46:46.747Z,2.35
2024-01-05T01:49:14.661Z,2.45
2024-01-05T01:51:43.048Z,2.42
2024-01-05T01:54:11.154Z,2.60
2024-01-05T01:56:38.900Z,1.80
2024-01-05T01:59:07.393Z,1.60
2024-01-05T02:01:35.394Z,1.33
2024-01-05T02:04:03.278Z,2.05
2024-01-05T02:06:31.010Z,3.42
2024-01-05T02:08:58.867Z,2.47
2024-01-05T02:11:26.479Z,2.40
2024-01-05T02:13:54.121Z,3.40
2024-01-05T02:16:21.846Z,3.03
2024-01-05T02:18:56.743Z,2.55
2024-01-05T02:21:25.711Z,4.00
2024-01-05T02:23:53.444Z,2.47
2024-01-05T02:26:21.910Z,3.05
2024-01-05T02:28:49.649Z,4.40
2024-01-05T02:31:17.413Z,4.82
2024-01-05T02:33:45.533Z,3.05
2024-01-05T02:36:13.463Z,2.28
2024-01-05T02:38:41.195Z,4.63
2024-01-05T02:41:08.982Z,1.35
2024-01-05T02:43:36.595Z,1.58
2024-01-05T02:46:05.021Z,1.65
2024-01-05T02:48:32.967Z,5.75
2024-01-05T02:51:00.784Z,3.63
2024-01-05T02:53:28.446Z,2.58
2024-01-05T02:55:56.165Z,3.72
2024-01-05T02:58:23.820Z,2.90
2024-01-05T03:00:51.701Z,3.30
2024-01-05T03:03:20.041Z,3.72
2024-01-05T03:05:47.838Z,6.07
2024-01-05T03:08:15.571Z,9.73
2024-01-05T03:10:43.299Z,20.10
2024-01-05T03:13:11.019Z,22.20
2024-01-05T03:15:38.863Z,23.02
2024-01-05T03:18:06.869Z,12.25
2024-01-05T03:20:34.764Z,7.22
2024-01-05T03:23:02.416Z,4.80
2024-01-05T03:25:30.101Z,2.38
2024-01-05T03:27:57.717Z,3.92
2024-01-05T03:30:25.487Z,3.40
2024-01-05T03:32:53.284Z,2.50
2024-01-05T03:35:21.159Z,3.45
2024-01-05T03:37:49.738Z,4.40
2024-01-05T03:40:17.665Z,3.72
2024-01-05T03:42:45.362Z,5.35
2024-01-05T03:45:13.073Z,3.58
2024-01-05T03:47:40.854Z,3.92
2024-01-05T03:50:08.796Z,5.75
2024-01-05T03:52:36.999Z,3.75
2024-01-05T03:55:05.060Z,3.95
2024-01-05T03:57:32.921Z,4.20
2024-01-05T04:00:01.478Z,5.55
2024-01-05T04:02:29.230Z,4.32
2024-01-05T04:04:57.022Z,4.63
2024-01-05T04:07:24.775Z,6.70
2024-01-05T04:09:52.554Z,5.22
2024-01-05T04:12:20.313Z,5.03
2024-01-05T04:14:48.192Z,6.45
2024-01-05T04:17:15.935Z,5.93
2024-01-05T04:19:43.640Z,5.45
2024-01-05T04:22:11.451Z,3.25
2024-01-05T04:24:39.146Z,4.97
2024-01-05T04:27:06.869Z,3.40
2024-01-05T04:29:37.486Z,3.70
2024-01-05T04:32:05.298Z,2.53
2024-01-05T04:34:33.114Z,2.13
2024-01-05T04:37:01.017Z,3.10
2024-01-05T04:39:28.678Z,2.42
2024-01-05T04:41:56.400Z,4.68
2024-01-05T04:44:24.112Z,2.58
2024-01-05T04:46:51.797Z,3.05
2024-01-05T04:49:19.683Z,2.30
2024-01-05T04:51:48.015Z,4.05
2024-01-05T04:54:15.922Z,4.82
2024-01-05T04:56:43.577Z,3.75
2024-01-05T04:59:11.265Z,1.77
2024-01-05T05:01:38.911Z,2.42
2024-01-05T05:04:06.689Z,1.65
2024-01-05T05:06:34.488Z,3.20
2024-01-05T05:09:02.416Z,2.78
2024-01-05T05:11:30.181Z,3.70
2024-01-05T05:13:57.861Z,2.30
2024-01-05T05:16:25.584Z,2.17
2024-01-05T05:18:53.662Z,3.28
2024-01-05T05:21:21.443Z,2.88
2024-01-05T05:23:49.165Z,3.00
2024-01-05T05:26:16.824Z,9.50
2024-01-05T05:28:44.476Z,3.85
2024-01-05T05:31:12.632Z,2.83
2024-01-05T05:33:40.406Z,3.47
2024-01-05T05:36:08.246Z,3.33
2024-01-05T05:38:35.942Z,2.28
2024-01-05T05:41:04.309Z,5.18
2024-01-05T05:43:32.048Z,4.53
2024-01-05T05:45:59.717Z,6.07
2024-01-05T05:48:27.731Z,4.32
2024-01-05T05:50:55.580Z,2.40
2024-01-05T05:53:23.272Z,3.83
2024-01-05T05:55:50.938Z,4.25
2024-01-05T05:58:18.638Z,3.70
2024-01-05T06:00:46.538Z,3.38
2024-01-05T06:03:14.732Z,3.40
2024-01-05T06:05:42.925Z,2.85
2024-01-05T06:08:10.659Z,4.38
2024-01-05T06:10:39.257Z,4.97
2024-01-05T06:13:07.049Z,5.18
2024-01-05T06:15:34.727Z,4.55
2024-01-05T06:18:02.800Z,4.43
2024-01-05T06:20:30.564Z,3.35
2024-01-05T06:22:58.255Z,8.20
2024-01-05T06:25:26.024Z,5.55
2024-01-05T06:27:53.783Z,5.85
2024-01-05T06:30:21.642Z,4.18
2024-01-05T06:32:49.343Z,4.93
2024-01-05T06:35:17.096Z,6.00
2024-01-05T06:37:44.707Z,4.57
2024-01-05T06:40:12.606Z,4.32
2024-01-05T06:42:40.475Z,4.45
2024-01-05T06:45:08.840Z,3.22
2024-01-05T06:47:36.569Z,4.07
2024-01-05T06:50:05.963Z,4.43
2024-01-05T06:52:33.896Z,4.15
2024-01-05T06:55:01.640Z,2.58
2024-01-05T06:57:30.908Z,4.60
2024-01-05T06:59:58.759Z,3.47
2024-01-05T07:02:26.465Z,4.32
2024-01-05T07:04:54.299Z,3.40
2024-01-05T07:07:22.055Z,5.07
2024-01-05T07:09:49.804Z,5.15
2024-01-05T07:12:17.871Z,5.32
2024-01-05T07:14:46.047Z,4.38
2024-01-05T07:17:13.757Z,5.50
2024-01-05T07:19:42.276Z,4.85
2024-01-05T07:22:10.000Z,2.65
2024-01-05T07:24:38.848Z,2.58
2024-01-05T07:27:07.234Z,4.45
2024-01-05T07:29:35.145Z,2.45
2024-01-05T07:32:02.912Z,1.98
2024-01-05T07:34:30.875Z,5.10
2024-01-05T07:36:58.582Z,4.03
2024-01-05T07:39:26.460Z,4.80
2024-01-05T07:41:54.082Z,8.25
2024-01-05T07:44:22.215Z,7.20
2024-01-05T07:46:49.869Z,5.20
2024-01-05T07:49:17.844Z,7.65
2024-01-05T07:51:45.961Z,5.63
2024-01-05T07:54:13.876Z,3.88
2024-01-05T07:56:41.539Z,4.25
2024-01-05T07:59:09.223Z,2.30
2024-01-05T08:01:37.931Z,2.78
2024-01-05T08:04:05.949Z,2.92
2024-01-05T08:06:33.818Z,3.05
2024-01-05T08:09:01.663Z,2.78
2024-01-05T08:11:29.520Z,3.05
2024-01-05T08:13:57.300Z,1.83
2024-01-05T08:16:26.918Z,2.90
2024-01-05T08:18:54.792Z,3.60
2024-01-05T08:21:22.571Z,3.70
2024-01-05T08:23:50.461Z,2.85
2024-01-05T08:26:19.245Z,3.42
2024-01-05T08:28:47.210Z,6.28
2024-01-05T08:31:15.084Z,2.85
2024-01-05T08:33:42.983Z,4.57
2024-01-05T08:36:10.821Z,2.97
2024-01-05T08:38:38.546Z,3.90
2024-01-05T08:41:06.257Z,3.67
2024-01-05T08:43:37.115Z,4.45
2024-01-05T08:48:34.237Z,4.20
2024-01-05T08:51:01.980Z,3.97
2024-01-05T08:53:29.789Z,2.78
2024-01-05T08:55:57.488Z,3.10
2024-01-05T08:58:25.154Z,4.07
2024-01-05T09:00:52.945Z,4.57
2024-01-05T09:03:20.739Z,2.97
2024-01-05T09:05:48.585Z,4.38
2024-01-05T09:08:16.291Z,3.67
2024-01-05T09:10:44.011Z,3.47
2024-01-05T09:13:11.901Z,3.38
2024-01-05T09:15:39.746Z,5.00
2024-01-05T09:18:07.764Z,4.85
2024-01-05T09:20:35.621Z,5.20
2024-01-05T09:23:03.337Z,3.15
2024-01-05T09:25:32.347Z,4.18
2024-01-05T09:28:05.346Z,5.40
2024-01-05T09:33:01.178Z,3.35
2024-01-05T09:35:28.937Z,6.60
2024-01-05T09:37:56.771Z,4.07
2024-01-05T09:40:25.935Z,3.50
2024-01-05T09:42:55.718Z,5.38
2024-01-05T09:45:23.575Z,5.00
2024-01-05T09:47:51.815Z,3.95
2024-01-05T09:50:20.281Z,5.57
2024-01-05T09:52:48.190Z,3.10
2024-01-05T09:55:15.921Z,3.97
2024-01-05T09:57:44.124Z,5.25
2024-01-05T10:00:15.518Z,5.72
2024-01-05T10:02:50.028Z,4.07
2024-01-05T10:05:17.879Z,5.45
2024-01-05T10:07:46.362Z,3.20
2024-01-05T10:10:15.194Z,3.20
2024-01-05T10:12:43.181Z,4.70
2024-01-05T10:15:13.278Z,4.95
2024-01-05T10:17:41.437Z,4.88
2024-01-05T10:20:16.980Z,5.22
2024-01-05T10:22:47.851Z,5.10
2024-01-05T10:25:16.829Z,4.68
2024-01-05T10:27:45.454Z,4.25
2024-01-05T10:30:25.496Z,4.20
2024-01-05T10:33:07.470Z,5.35
2024-01-05T10:35:37.269Z,4.30
2024-01-05T10:38:06.189Z,5.30
2024-01-05T10:40:34.133Z,3.63
2024-01-05T10:43:11.018Z,3.53
2024-01-05T10:45:39.397Z,3.70
2024-01-05T10:48:09.476Z,6.60
2024-01-05T10:50:38.713Z,4.80
2024-01-05T10:53:10.669Z,3.38
2024-01-05T10:55:39.818Z,4.72
2024-01-05T10:58:11.184Z,7.18
2024-01-05T11:00:40.609Z,6.05
2024-01-05T11:03:20.137Z,4.47
2024-01-05T11:05:48.422Z,5.05
2024-01-05T11:08:20.295Z,5.78
2024-01-05T11:10:48.016Z,4.07
2024-01-05T11:13:34.858Z,4.75
2024-01-05T11:16:14.912Z,4.50
2024-01-05T11:18:42.738Z,5.18
2024-01-05T11:21:13.002Z,4.07
2024-01-05T11:23:42.269Z,6.57
2024-01-05T11:26:29.881Z,6.72
2024-01-05T11:28:57.713Z,4.22
2024-01-05T11:31:44.186Z,4.57
2024-01-05T11:34:36.547Z,7.15
2024-01-05T11:37:06.330Z,6.28
2024-01-05T11:39:42.601Z,6.80
2024-01-05T11:42:10.468Z,5.88
2024-01-05T11:44:38.495Z,7.53
2024-01-05T11:47:06.297Z,7.20
2024-01-05T11:49:39.447Z,5.15
2024-01-05T11:52:07.504Z,6.65
2024-01-05T11:54:35.341Z,6.95
2024-01-05T11:57:04.235Z,6.00
2024-01-05T11:59:31.981Z,5.18
2024-01-05T12:01:59.624Z,6.93
2024-01-05T12:04:27.358Z,7.97
2024-01-05T12:06:55.770Z,6.75
2024-01-05T12:09:23.617Z,6.50
2024-01-05T12:11:51.548Z,8.48
2024-01-05T12:14:28.748Z,7.55
2024-01-05T12:17:14.314Z,8.10
2024-01-05T12:19:42.295Z,8.07
2024-01-05T12:22:10.100Z,7.20
2024-01-05T12:24:38.918Z,10.18
2024-01-05T12:27:06.818Z,8.65
2024-01-05T12:29:35.580Z,10.18
2024-01-05T12:32:03.881Z,7.32
2024-01-05T12:34:32.016Z,9.23
2024-01-05T12:37:18.023Z,11.43
2024-01-05T12:39:45.753Z,9.15
2024-01-05T12:42:13.543Z,12.98
2024-01-05T12:44:41.292Z,12.68
2024-01-05T12:47:08.905Z,11.70
2024-01-05T12:49:37.242Z,12.20
2024-01-05T12:52:06.104Z,10.60
2024-01-05T12:54:43.509Z,13.82
2024-01-05T12:57:11.427Z,12.70
2024-01-05T12:59:39.426Z,13.35
2024-01-05T13:02:07.777Z,13.13
2024-01-05T13:04:40.120Z,15.40
2024-01-05T13:07:12.555Z,14.40
2024-01-05T13:09:40.787Z,15.23
2024-01-05T13:12:08.990Z,15.57
2024-01-05T13:14:36.718Z,16.35
2024-01-05T13:17:06.410Z,17.63
2024-01-05T13:19:34.380Z,15.20
2024-01-05T13:22:02.210Z,16.98
2024-01-05T13:24:30.931Z,18.83
2024-01-05T13:26:59.707Z,16.67
2024-01-05T13:29:27.384Z,18.08
2024-01-05T13:31:55.166Z,16.60
2024-01-05T13:34:23.016Z,17.23
2024-01-05T13:36:50.838Z,17.13
2024-01-05T13:39:18.735Z,17.58
2024-01-05T13:41:46.446Z,15.27
2024-01-05T13:44:14.138Z,19.92
2024-01-05T13:46:41.817Z,17.02
2024-01-05T13:49:09.607Z,14.82
2024-01-05T13:51:37.298Z,14.68
2024-01-05T13:54:04.957Z,18.45
2024-01-05T13:56:33.181Z,16.75
2024-01-05T13:59:00.962Z,15.27
2024-01-05T14:01:28.606Z,17.15
2024-01-05T14:03:56.440Z,15.77
2024-01-05T14:06:24.107Z,15.13
2024-01-05T14:08:51.876Z,20.65
2024-01-05T14:11:19.581Z,16.13
2024-01-05T14:13:47.301Z,18.10
2024-01-05T14:16:15.603Z,18.13
2024-01-05T14:18:43.302Z,15.63
2024-01-05T14:21:11.242Z,17.00
2024-01-05T14:23:41.737Z,18.00
2024-01-05T14:26:12.558Z,19.75
2024-01-05T14:28:46.588Z,17.23
2024-01-05T14:31:25.247Z,17.70
2024-01-05T14:33:53.146Z,15.35
2024-01-05T14:36:20.989Z,19.27
2024-01-05T14:38:48.716Z,17.95
2024-01-05T14:41:16.437Z,20.17
2024-01-05T14:43:44.127Z,18.95
2024-01-05T14:46:12.178Z,17.60
2024-01-05T14:48:40.342Z,19.75
2024-01-05T14:51:08.327Z,19.17
2024-01-05T14:53:36.453Z,22.20
2024-01-05T14:56:04.658Z,18.92
2024-01-05T14:58:32.523Z,20.08
2024-01-05T15:01:00.395Z,20.15
2024-01-05T15:03:28.836Z,18.08
2024-01-05T15:05:56.636Z,21.73
2024-01-05T15:08:24.492Z,18.70
2024-01-05T15:10:52.117Z,17.40
2024-01-05T15:13:19.825Z,17.50
2024-01-05T15:15:47.521Z,19.45
2024-01-05T15:18:15.391Z,22.42
2024-01-05T15:20:43.067Z,19.05
2024-01-05T15:23:10.887Z,20.35
2024-01-05T15:25:38.545Z,20.45
2024-01-05T15:28:06.225Z,21.92
2024-01-05T15:30:34.004Z,21.08
2024-01-05T15:33:01.837Z,23.40
2024-01-05T15:35:29.719Z,23.88
2024-01-05T15:37:57.388Z,20.10
2024-01-05T15:42:55.952Z,22.73
2024-01-05T15:45:23.933Z,24.90
2024-01-05T15:47:51.758Z,23.23
2024-01-05T15:50:21.533Z,21.10
2024-01-05T15:52:49.558Z,17.55
2024-01-05T15:55:20.378Z,20.13
2024-01-05T15:57:48.201Z,18.33
2024-01-05T16:00:16.513Z,17.92
2024-01-05T16:02:44.527Z,19.58
2024-01-05T16:05:12.286Z,19.00
2024-01-05T16:07:40.076Z,19.88
2024-01-05T16:10:07.841Z,21.13
2024-01-05T16:12:35.550Z,17.98
2024-01-05T16:15:03.338Z,19.15
2024-01-05T16:17:36.101Z,21.15
2024-01-05T16:20:04.433Z,22.35
2024-01-05T16:22:32.238Z,23.48
2024-01-05T16:24:59.851Z,22.30
2024-01-05T16:27:27.619Z,23.38
2024-01-05T16:29:56.199Z,22.63
2024-01-05T16:32:23.855Z,24.80
2024-01-05T16:34:51.631Z,21.92
2024-01-05T16:37:19.470Z,25.20
2024-01-05T16:39:47.277Z,26.40
2024-01-05T16:42:15.021Z,23.88
2024-01-05T16:44:44.578Z,22.60
2024-01-05T16:47:12.434Z,21.90
2024-01-05T16:49:40.249Z,20.40
2024-01-05T16:52:08.007Z,23.85
2024-01-05T16:54:35.686Z,28.98
2024-01-05T16:57:03.496Z,20.15
2024-01-05T16:59:31.185Z,23.63
2024-01-05T17:01:58.843Z,21.67
2024-01-05T17:04:27.442Z,24.48
2024-01-05T17:06:55.281Z,18.48
2024-01-05T17:09:23.303Z,19.98
2024-01-05T17:11:51.615Z,23.15
2024-01-05T17:14:20.220Z,23.48
2024-01-05T17:16:48.621Z,24.70
2024-01-05T17:19:16.568Z,24.20
2024-01-05T17:21:44.999Z,33.53
2024-01-05T17:24:13.042Z,26.85
2024-01-05T17:26:41.344Z,26.05
2024-01-05T17:29:09.121Z,22.75
2024-01-05T17:31:37.007Z,23.23
2024-01-05T17:34:05.021Z,23.17
2024-01-05T17:36:38.122Z,23.83
2024-01-05T17:39:05.840Z,26.55
2024-01-05T17:41:33.473Z,26.75
2024-01-05T17:44:01.175Z,26.50
2024-01-05T17:46:28.829Z,25.00
2024-01-05T17:48:56.573Z,21.88
2024-01-05T17:51:24.540Z,23.10
2024-01-05T17:54:00.549Z,24.73
2024-01-05T17:56:34.392Z,26.50
2024-01-05T17:59:04.836Z,25.42
2024-01-05T18:01:34.052Z,31.70
2024-01-05T18:04:02.219Z,28.80
2024-01-05T18:06:30.150Z,28.48
2024-01-05T18:08:58.079Z,28.13
2024-01-05T18:11:26.375Z,24.05
2024-01-05T18:13:56.973Z,28.48
2024-01-05T18:16:25.906Z,27.40
2024-01-05T18:18:54.050Z,24.13
2024-01-05T18:21:26.269Z,27.67
2024-01-05T18:23:55.104Z,27.55
2024-01-05T18:26:23.857Z,25.77
2024-01-05T18:28:52.056Z,29.48
2024-01-05T18:31:26.527Z,26.50
2024-01-05T18:33:54.935Z,26.67
2024-01-05T18:36:22.825Z,23.40
2024-01-05T18:38:51.016Z,22.75
2024-01-05T18:41:26.067Z,30.73
2024-01-05T18:43:54.062Z,25.77
2024-01-05T18:46:21.747Z,27.05
2024-01-05T18:48:49.990Z,25.10
2024-01-05T18:51:17.981Z,24.30
2024-01-05T18:53:45.851Z,25.38
2024-01-05T18:56:14.388Z,22.52
2024-01-05T18:58:42.583Z,24.98
2024-01-05T19:01:11.402Z,24.85
2024-01-05T19:03:39.171Z,23.85
2024-01-05T19:06:07.216Z,29.70
2024-01-05T19:08:35.096Z,24.55
2024-01-05T19:11:04.722Z,38.60
2024-01-05T19:13:33.672Z,27.92
2024-01-05T19:16:01.750Z,34.58
2024-01-05T19:18:31.365Z,33.53
2024-01-05T19:20:59.206Z,34.35
2024-01-05T19:23:26.873Z,30.88
2024-01-05T19:25:54.648Z,29.45
2024-01-05T19:28:24.378Z,26.33
2024-01-05T19:30:52.162Z,28.17
2024-01-05T19:33:19.960Z,30.33
2024-01-05T19:35:48.883Z,30.23
2024-01-05T19:38:16.552Z,32.25
2024-01-05T19:40:45.116Z,25.40
2024-01-05T19:43:13.381Z,28.40
2024-01-05T19:45:42.693Z,83.47
2024-01-05T19:48:10.477Z,73.28
2024-01-05T19:50:38.797Z,57.88
2024-01-05T19:53:06.924Z,50.00
2024-01-05T19:55:34.767Z,34.30
2024-01-05T19:58:02.473Z,38.85
2024-01-05T20:00:30.231Z,51.97
2024-01-05T20:02:57.934Z,46.38
2024-01-05T20:05:27.205Z,43.83
2024-01-05T20:07:59.824Z,44.63
2024-01-05T20:10:28.896Z,36.38
2024-01-05T20:12:56.920Z,34.47
2024-01-05T20:15:26.512Z,30.70
2024-01-05T20:17:55.053Z,32.50
2024-01-05T20:20:23.509Z,34.67
2024-01-05T20:22:51.199Z,31.20
2024-01-05T20:25:18.969Z,30.98
2024-01-05T20:27:47.845Z,28.45
2024-01-05T20:30:15.814Z,31.08
2024-01-05T20:32:43.714Z,28.45
2024-01-05T20:35:11.633Z,28.60
2024-01-05T20:37:39.542Z,29.50
2024-01-05T20:40:10.269Z,31.55
2024-01-05T20:42:38.668Z,29.88
2024-01-05T20:45:08.971Z,32.50
2024-01-05T20:47:36.895Z,29.70
2024-01-05T20:50:05.207Z,29.17
2024-01-05T20:52:34.588Z,32.10
2024-01-05T20:55:02.852Z,30.17
2024-01-05T20:57:30.688Z,29.17
2024-01-05T20:59:59.151Z,32.72
2024-01-05T21:02:27.027Z,35.33
2024-01-05T21:04:54.847Z,32.53
2024-01-05T21:07:23.181Z,31.05
2024-01-05T21:09:51.098Z,30.73
2024-01-05T21:12:18.890Z,33.75
2024-01-05T21:14:46.850Z,32.58
2024-01-05T21:17:14.670Z,30.58
2024-01-05T21:19:42.520Z,29.23
2024-01-05T21:22:10.360Z,32.05
2024-01-05T21:24:42.785Z,25.67
2024-01-05T21:29:43.571Z,28.95
2024-01-05T21:32:11.657Z,24.90
2024-01-05T21:34:43.203Z,28.05
2024-01-05T21:37:12.209Z,26.13
2024-01-05T21:39:40.042Z,25.60
2024-01-05T21:42:08.777Z,25.17
2024-01-05T21:44:36.507Z,22.95
2024-01-05T21:47:04.338Z,29.02
2024-01-05T21:49:32.053Z,24.98
2024-01-05T21:52:00.408Z,23.88
2024-01-05T21:54:28.192Z,28.02
2024-01-05T21:56:55.971Z,23.63
2024-01-05T21:59:23.917Z,31.52
2024-01-05T22:01:51.681Z,29.05
2024-01-05T22:04:19.497Z,26.05
2024-01-05T22:06:47.355Z,27.85
2024-01-05T22:09:17.562Z,26.25
2024-01-05T22:11:45.494Z,24.80
2024-01-05T22:14:13.812Z,21.58
2024-01-05T22:16:41.917Z,26.25
2024-01-05T22:19:10.323Z,23.38
2024-01-05T22:21:38.343Z,20.50
2024-01-05T22:24:06.393Z,23.92
2024-01-05T22:26:34.279Z,21.33
2024-01-05T22:29:02.489Z,22.95
2024-01-05T22:31:30.779Z,23.70
2024-01-05T22:33:58.686Z,20.95
2024-01-05T22:36:27.113Z,24.73
2024-01-05T22:38:54.895Z,27.95
2024-01-05T22:41:24.089Z,26.48
2024-01-05T22:43:55.008Z,26.20
2024-01-05T22:46:23.245Z,23.60
2024-01-05T22:48:51.278Z,24.05
2024-01-05T22:51:22.922Z,26.05
2024-01-05T22:53:50.976Z,27.10
2024-01-05T22:56:18.674Z,28.17
2024-01-05T22:58:46.528Z,29.92
2024-01-05T23:01:21.150Z,32.22
2024-01-05T23:03:49.464Z,31.63
2024-01-05T23:06:17.984Z,34.63
2024-01-05T23:08:46.170Z,34.88
2024-01-05T23:11:13.863Z,38.28
2024-01-05T23:13:41.560Z,39.95
2024-01-05T23:16:09.486Z,40.80
2024-01-05T23:18:37.452Z,41.70
2024-01-05T23:21:05.476Z,43.72
2024-01-05T23:23:36.032Z,44.28
2024-01-05T23:26:03.691Z,45.17
2024-01-05T23:28:31.512Z,41.25
2024-01-05T23:30:59.352Z,40.47
2024-01-05T23:33:27.202Z,45.95
2024-01-05T23:35:55.048Z,40.28
2024-01-05T23:38:23.468Z,39.03
2024-01-05T23:40:51.230Z,36.15
2024-01-05T23:43:18.897Z,37.78
2024-01-05T23:45:46.691Z,36.55
2024-01-05T23:48:14.589Z,34.63
2024-01-05T23:50:42.389Z,34.50
2024-01-05T23:53:10.273Z,34.92
2024-01-05T23:55:38.181Z,33.45
2024-01-05T23:58:05.874Z,35.53
